createdAt,value
2023-02-11T00:00:30.382Z,16.38
2023-02-11T00:01:07.726Z,15.45
2023-02-11T00:01:39.580Z,17.35
2023-02-11T00:02:12.358Z,15.80
2023-02-11T00:02:47.468Z,14.48
2023-02-11T00:03:19.746Z,16.08
2023-02-11T00:03:52.220Z,15.70
2023-02-11T00:04:25.024Z,16.33
2023-02-11T00:04:56.902Z,15.52
2023-02-11T00:05:28.707Z,17.10
2023-02-11T00:06:02.641Z,15.13
2023-02-11T00:06:35.843Z,17.27
2023-02-11T00:07:09.955Z,15.93
2023-02-11T00:07:41.800Z,16.17
2023-02-11T00:08:16.928Z,15.07
2023-02-11T00:08:48.822Z,16.85
2023-02-11T00:09:21.674Z,16.27
2023-02-11T00:09:53.458Z,14.95
2023-02-11T00:10:25.245Z,15.20
2023-02-11T00:10:58.193Z,15.80
2023-02-11T00:11:31.326Z,16.13
2023-02-11T00:12:03.317Z,14.98
2023-02-11T00:12:35.197Z,17.23
2023-02-11T00:13:07.028Z,16.52
2023-02-11T00:13:39.867Z,17.33
2023-02-11T00:14:12.127Z,15.18
2023-02-11T00:14:44.875Z,16.00
2023-02-11T00:15:16.782Z,15.52
2023-02-11T00:15:48.885Z,14.52
2023-02-11T00:16:22.512Z,17.67
2023-02-11T00:16:54.375Z,16.35
2023-02-11T00:17:26.290Z,16.33
2023-02-11T00:17:59.041Z,16.50
2023-02-11T00:18:31.072Z,16.15
2023-02-11T00:19:03.661Z,16.83
2023-02-11T00:19:36.426Z,15.55
2023-02-11T00:20:09.262Z,15.63
2023-02-11T00:20:41.403Z,15.07
2023-02-11T00:21:15.964Z,16.13
2023-02-11T00:21:47.790Z,17.23
2023-02-11T00:22:21.005Z,17.05
2023-02-11T00:22:53.799Z,16.30
2023-02-11T00:23:25.729Z,16.50
2023-02-11T00:23:59.531Z,16.92
2023-02-11T00:24:32.476Z,16.27
2023-02-11T00:25:04.668Z,16.15
2023-02-11T00:25:39.673Z,18.50
2023-02-11T00:26:12.886Z,16.17
2023-02-11T00:26:45.851Z,16.48
2023-02-11T00:27:17.800Z,16.63
2023-02-11T00:27:49.678Z,15.73
2023-02-11T00:28:22.591Z,15.38
2023-02-11T00:28:54.597Z,15.63
2023-02-11T00:29:26.523Z,16.52
2023-02-11T00:30:00.481Z,14.77
2023-02-11T00:30:32.438Z,16.52
2023-02-11T00:31:04.655Z,16.42
2023-02-11T00:31:37.626Z,15.85
2023-02-11T00:32:10.753Z,17.50
2023-02-11T00:32:42.583Z,16.30
2023-02-11T00:33:14.391Z,15.55
2023-02-11T00:33:47.382Z,15.30
2023-02-11T00:34:19.184Z,16.67
2023-02-11T00:34:52.666Z,16.48
2023-02-11T00:35:25.884Z,14.05
2023-02-11T00:35:58.551Z,17.40
2023-02-11T00:36:30.721Z,17.33
2023-02-11T00:37:03.578Z,18.52
2023-02-11T00:37:36.806Z,16.02
2023-02-11T00:38:08.615Z,17.25
2023-02-11T00:38:41.503Z,16.23
2023-02-11T00:39:13.352Z,15.43
2023-02-11T00:39:45.174Z,17.70
2023-02-11T00:40:18.189Z,17.05
2023-02-11T00:40:50.044Z,15.98
2023-02-11T00:41:22.830Z,16.25
2023-02-11T00:41:55.579Z,17.38
2023-02-11T00:42:27.405Z,16.58
2023-02-11T00:42:59.207Z,16.30
2023-02-11T00:43:31.012Z,17.48
2023-02-11T00:44:04.043Z,17.00
2023-02-11T00:44:35.896Z,15.35
2023-02-11T00:45:09.679Z,16.35
2023-02-11T00:45:42.507Z,18.10
2023-02-11T00:46:15.437Z,16.23
2023-02-11T00:46:47.398Z,16.80
2023-02-11T00:47:20.184Z,15.48
2023-02-11T00:47:52.003Z,16.15
2023-02-11T00:48:23.863Z,16.52
2023-02-11T00:48:57.678Z,15.75
2023-02-11T00:49:29.491Z,17.52
2023-02-11T00:50:01.442Z,17.50
2023-02-11T00:50:34.269Z,16.83
2023-02-11T00:51:06.743Z,16.83
2023-02-11T00:51:38.647Z,16.25
2023-02-11T00:52:11.611Z,15.52
2023-02-11T00:52:44.777Z,15.85
2023-02-11T00:53:16.592Z,18.98
2023-02-11T00:53:49.358Z,15.90
2023-02-11T00:54:21.244Z,17.35
2023-02-11T00:54:53.098Z,16.83
2023-02-11T00:55:24.898Z,16.75
2023-02-11T00:55:57.881Z,17.00
2023-02-11T00:56:29.746Z,16.95
2023-02-11T00:57:01.636Z,16.60
2023-02-11T00:57:34.400Z,16.30
2023-02-11T00:58:06.226Z,19.15
2023-02-11T00:58:38.508Z,17.13
2023-02-11T00:59:10.410Z,17.30
2023-02-11T00:59:43.371Z,17.83
2023-02-11T01:00:16.091Z,16.33
2023-02-11T01:00:48.280Z,15.18
2023-02-11T01:01:20.422Z,15.93
2023-02-11T01:01:53.314Z,17.73
2023-02-11T01:02:25.164Z,16.40
2023-02-11T01:02:57.178Z,16.55
2023-02-11T01:03:29.096Z,16.60
2023-02-11T01:04:01.868Z,17.40
2023-02-11T01:04:33.724Z,16.13
2023-02-11T01:05:06.595Z,15.45
2023-02-11T01:05:39.482Z,16.20
2023-02-11T01:06:11.843Z,17.05
2023-02-11T01:06:43.640Z,16.27
2023-02-11T01:07:16.421Z,15.63
2023-02-11T01:07:49.578Z,15.93
2023-02-11T01:08:21.476Z,15.95
2023-02-11T01:08:54.305Z,15.95
2023-02-11T01:09:26.134Z,16.98
2023-02-11T01:09:58.100Z,15.18
2023-02-11T01:10:30.867Z,17.42
2023-02-11T01:11:05.478Z,17.15
2023-02-11T01:11:38.216Z,15.98
2023-02-11T01:12:10.026Z,16.98
2023-02-11T01:12:41.894Z,17.58
2023-02-11T01:13:14.735Z,16.50
2023-02-11T01:13:47.866Z,17.50
2023-02-11T01:14:20.683Z,14.77
2023-02-11T01:14:52.605Z,15.45
2023-02-11T01:15:24.633Z,17.60
2023-02-11T01:15:58.003Z,17.38
2023-02-11T01:16:30.042Z,16.88
2023-02-11T01:17:01.838Z,16.50
2023-02-11T01:17:34.717Z,17.77
2023-02-11T01:18:06.632Z,16.30
2023-02-11T01:18:39.068Z,16.42
2023-02-11T01:19:12.503Z,16.10
2023-02-11T01:19:44.314Z,17.40
2023-02-11T01:20:19.319Z,16.65
2023-02-11T01:20:52.786Z,16.27
2023-02-11T01:21:24.945Z,15.75
2023-02-11T01:21:56.863Z,16.58
2023-02-11T01:22:29.779Z,15.63
2023-02-11T01:23:02.995Z,15.55
2023-02-11T01:23:34.790Z,16.90
2023-02-11T01:24:07.980Z,16.08
2023-02-11T01:24:39.785Z,15.05
2023-02-11T01:25:11.715Z,16.83
2023-02-11T01:25:43.633Z,15.07
2023-02-11T01:26:16.412Z,14.98
2023-02-11T01:26:48.307Z,15.82
2023-02-11T01:27:20.129Z,17.17
2023-02-11T01:27:52.938Z,16.05
2023-02-11T01:28:27.064Z,14.75
2023-02-11T01:29:00.735Z,16.58
2023-02-11T01:29:33.561Z,15.85
2023-02-11T01:30:08.048Z,16.75
2023-02-11T01:30:39.874Z,14.55
2023-02-11T01:31:12.735Z,15.52
2023-02-11T01:31:44.590Z,14.82
2023-02-11T01:32:16.685Z,15.98
2023-02-11T01:32:49.526Z,14.73
2023-02-11T01:33:22.215Z,16.00
2023-02-11T01:33:54.983Z,15.35
2023-02-11T01:34:26.923Z,14.85
2023-02-11T01:34:58.816Z,15.10
2023-02-11T01:35:31.597Z,14.63
2023-02-11T01:36:05.187Z,14.38
2023-02-11T01:36:37.049Z,14.98
2023-02-11T01:37:09.874Z,15.68
2023-02-11T01:37:41.846Z,14.85
2023-02-11T01:38:17.606Z,14.65
2023-02-11T01:38:51.212Z,15.48
2023-02-11T01:39:23.057Z,15.10
2023-02-11T01:39:54.863Z,15.38
2023-02-11T01:40:27.764Z,15.18
2023-02-11T01:41:01.182Z,16.48
2023-02-11T01:41:33.092Z,15.18
2023-02-11T01:42:06.164Z,14.38
2023-02-11T01:42:38.082Z,13.48
2023-02-11T01:43:10.715Z,15.13
2023-02-11T01:43:45.935Z,15.45
2023-02-11T01:44:26.205Z,15.90
2023-02-11T01:44:58.363Z,13.85
2023-02-11T01:45:58.207Z,14.07
2023-02-11T01:46:34.117Z,14.43
2023-02-11T01:47:06.454Z,14.48
2023-02-11T01:47:39.266Z,14.30
2023-02-11T01:48:13.717Z,13.93
2023-02-11T01:48:48.807Z,14.13
2023-02-11T01:49:26.091Z,15.35
2023-02-11T01:50:01.227Z,14.85
2023-02-11T01:50:33.452Z,13.45
2023-02-11T01:51:09.972Z,13.98
2023-02-11T01:51:46.438Z,15.30
2023-02-11T01:52:22.178Z,14.38
2023-02-11T01:53:15.319Z,14.05
2023-02-11T01:54:08.320Z,13.77
2023-02-11T01:55:02.667Z,13.45
2023-02-11T01:55:53.125Z,13.18
2023-02-11T01:56:45.543Z,13.57
2023-02-11T01:57:22.288Z,13.88
2023-02-11T01:57:58.368Z,14.95
2023-02-11T01:58:32.552Z,14.35
2023-02-11T01:59:10.305Z,14.43
2023-02-11T01:59:52.232Z,12.90
2023-02-11T02:00:27.323Z,14.60
2023-02-11T02:01:00.928Z,14.02
2023-02-11T02:01:34.554Z,14.98
2023-02-11T02:02:10.166Z,13.88
2023-02-11T02:02:50.024Z,15.52
2023-02-11T02:03:24.395Z,13.68
2023-02-11T02:04:01.503Z,13.02
2023-02-11T02:04:40.816Z,14.43
2023-02-11T02:05:22.162Z,13.88
2023-02-11T02:05:58.695Z,13.93
2023-02-11T02:06:34.502Z,13.85
2023-02-11T02:07:10.425Z,13.07
2023-02-11T02:07:49.007Z,14.13
2023-02-11T02:08:25.715Z,12.40
2023-02-11T02:09:03.677Z,12.95
2023-02-11T02:09:41.292Z,13.07
2023-02-11T02:10:19.047Z,13.80
2023-02-11T02:10:56.228Z,13.23
2023-02-11T02:11:29.232Z,13.38
2023-02-11T02:12:01.099Z,13.82
2023-02-11T02:12:32.934Z,13.32
2023-02-11T02:13:05.801Z,13.45
2023-02-11T02:13:38.363Z,15.10
2023-02-11T02:14:10.203Z,14.18
2023-02-11T02:14:43.505Z,15.77
2023-02-11T02:15:30.252Z,14.10
2023-02-11T02:16:07.726Z,12.93
2023-02-11T02:16:41.293Z,13.80
2023-02-11T02:17:24.350Z,13.60
2023-02-11T02:18:28.849Z,13.23
2023-02-11T02:19:24.718Z,12.32
2023-02-11T02:20:17.982Z,13.32
2023-02-11T02:21:25.578Z,11.95
2023-02-11T02:22:28.256Z,11.25
2023-02-11T02:23:24.899Z,12.10
2023-02-11T02:24:32.675Z,12.57
2023-02-11T02:25:26.902Z,13.85
2023-02-11T02:26:28.560Z,12.80
2023-02-11T02:27:26.356Z,11.65
2023-02-11T02:28:12.508Z,12.13
2023-02-11T02:29:21.188Z,12.15
2023-02-11T02:30:16.815Z,11.93
2023-02-11T02:31:08.219Z,12.73
2023-02-11T02:31:54.788Z,11.60
2023-02-11T02:32:39.358Z,14.07
2023-02-11T02:33:31.640Z,12.02
2023-02-11T02:34:09.159Z,12.75
2023-02-11T02:34:48.253Z,12.52
2023-02-11T02:35:30.524Z,13.50
2023-02-11T02:36:12.660Z,13.18
2023-02-11T02:36:50.113Z,13.00
2023-02-11T02:37:30.514Z,13.02
2023-02-11T02:38:10.463Z,13.13
2023-02-11T02:38:49.612Z,12.18
2023-02-11T02:39:25.751Z,13.70
2023-02-11T02:40:02.673Z,13.70
2023-02-11T02:40:41.498Z,11.98
2023-02-11T02:41:16.144Z,12.63
2023-02-11T02:41:49.555Z,12.60
2023-02-11T02:42:23.288Z,11.13
2023-02-11T02:42:56.199Z,13.02
2023-02-11T02:43:30.232Z,12.38
2023-02-11T02:44:03.865Z,13.13
2023-02-11T02:44:35.721Z,13.38
2023-02-11T02:45:09.151Z,12.80
2023-02-11T02:45:42.092Z,12.35
2023-02-11T02:46:16.195Z,12.43
2023-02-11T02:46:48.134Z,12.65
2023-02-11T02:47:19.974Z,13.07
2023-02-11T02:47:54.099Z,12.85
2023-02-11T02:48:27.536Z,12.88
2023-02-11T02:49:00.164Z,13.02
2023-02-11T02:49:33.023Z,12.60
2023-02-11T02:50:07.632Z,11.80
2023-02-11T02:50:39.663Z,12.57
2023-02-11T02:51:37.164Z,11.30
2023-02-11T02:52:18.348Z,11.55
2023-02-11T02:53:01.236Z,12.15
2023-02-11T02:53:43.185Z,12.32
2023-02-11T02:54:38.906Z,11.25
2023-02-11T02:55:37.276Z,12.30
2023-02-11T02:56:14.951Z,11.60
2023-02-11T02:56:54.461Z,12.13
2023-02-11T02:57:33.747Z,12.50
2023-02-11T02:58:47.354Z,11.48
2023-02-11T02:59:30.350Z,10.55
2023-02-11T03:00:22.335Z,11.93
2023-02-11T03:01:03.487Z,13.27
2023-02-11T03:01:43.006Z,11.27
2023-02-11T03:02:22.790Z,11.98
2023-02-11T03:03:14.391Z,10.02
2023-02-11T03:03:52.190Z,11.48
2023-02-11T03:04:31.861Z,11.40
2023-02-11T03:05:11.895Z,11.82
2023-02-11T03:05:52.741Z,10.43
2023-02-11T03:06:33.941Z,12.85
2023-02-11T03:07:12.532Z,11.38
2023-02-11T03:07:52.061Z,10.60
2023-02-11T03:08:33.283Z,11.68
2023-02-11T03:09:11.816Z,11.70
2023-02-11T03:09:48.478Z,10.60
2023-02-11T03:10:26.171Z,12.32
2023-02-11T03:11:01.220Z,11.85
2023-02-11T03:11:34.291Z,12.27
2023-02-11T03:12:08.369Z,11.35
2023-02-11T03:12:43.863Z,11.90
2023-02-11T03:13:18.926Z,11.80
2023-02-11T03:13:52.672Z,12.38
2023-02-11T03:14:28.220Z,11.40
2023-02-11T03:15:02.985Z,11.77
2023-02-11T03:15:39.827Z,10.77
2023-02-11T03:16:15.543Z,10.75
2023-02-11T03:16:50.279Z,11.90
2023-02-11T03:17:25.005Z,11.70
2023-02-11T03:18:01.917Z,11.10
2023-02-11T03:18:36.325Z,11.32
2023-02-11T03:19:15.110Z,12.20
2023-02-11T03:19:50.524Z,12.10
2023-02-11T03:20:23.425Z,11.57
2023-02-11T03:20:59.044Z,12.45
2023-02-11T03:21:32.472Z,12.05
2023-02-11T03:22:08.540Z,12.82
2023-02-11T03:22:47.169Z,13.70
2023-02-11T03:23:23.665Z,12.05
2023-02-11T03:23:58.086Z,11.75
2023-02-11T03:24:33.926Z,11.30
2023-02-11T03:25:06.860Z,12.05
2023-02-11T03:25:43.971Z,11.20
2023-02-11T03:26:23.749Z,11.43
2023-02-11T03:26:58.910Z,11.73
2023-02-11T03:27:38.907Z,11.35
2023-02-11T03:28:17.149Z,11.52
2023-02-11T03:28:54.522Z,11.35
2023-02-11T03:29:34.055Z,11.80
2023-02-11T03:30:12.479Z,10.48
2023-02-11T03:30:49.388Z,10.45
2023-02-11T03:31:28.951Z,11.32
2023-02-11T03:32:09.074Z,10.65
2023-02-11T03:32:46.588Z,11.73
2023-02-11T03:33:25.967Z,11.60
2023-02-11T03:34:03.363Z,10.70
2023-02-11T03:34:42.208Z,10.85
2023-02-11T03:35:17.839Z,10.90
2023-02-11T03:35:56.349Z,10.23
2023-02-11T03:36:35.731Z,12.00
2023-02-11T03:37:13.024Z,11.23
2023-02-11T03:37:52.451Z,10.43
2023-02-11T03:38:29.548Z,11.20
2023-02-11T03:39:03.503Z,11.23
2023-02-11T03:39:40.485Z,10.85
2023-02-11T03:40:16.958Z,11.07
2023-02-11T03:40:50.159Z,10.95
2023-02-11T03:41:25.124Z,11.23
2023-02-11T03:41:59.668Z,10.40
2023-02-11T03:42:36.860Z,10.77
2023-02-11T03:43:14.417Z,11.48
2023-02-11T03:43:49.604Z,10.40
2023-02-11T03:44:24.384Z,10.07
2023-02-11T03:45:06.250Z,9.68
2023-02-11T03:45:39.372Z,9.85
2023-02-11T03:46:14.160Z,10.38
2023-02-11T03:46:51.263Z,10.35
2023-02-11T03:47:25.901Z,9.98
2023-02-11T03:48:03.043Z,11.40
2023-02-11T03:48:40.507Z,10.35
2023-02-11T03:49:14.688Z,10.02
2023-02-11T03:49:49.680Z,10.20
2023-02-11T03:50:24.212Z,10.23
2023-02-11T03:50:57.434Z,9.38
2023-02-11T03:51:31.153Z,10.52
2023-02-11T03:52:05.804Z,10.35
2023-02-11T03:52:40.079Z,10.43
2023-02-11T03:53:13.022Z,10.10
2023-02-11T03:53:46.517Z,9.77
2023-02-11T03:54:24.129Z,9.05
2023-02-11T03:55:00.238Z,10.77
2023-02-11T03:55:37.232Z,10.20
2023-02-11T03:56:14.067Z,9.70
2023-02-11T03:56:52.327Z,9.05
2023-02-11T03:57:24.153Z,9.98
2023-02-11T03:57:57.422Z,10.27
2023-02-11T03:58:29.274Z,10.20
2023-02-11T03:59:01.543Z,9.82
2023-02-11T03:59:50.066Z,9.68
2023-02-11T04:00:29.982Z,9.23
2023-02-11T04:01:02.727Z,10.35
2023-02-11T04:01:34.832Z,8.65
2023-02-11T04:02:07.611Z,8.35
2023-02-11T04:02:40.651Z,9.95
2023-02-11T04:03:13.421Z,10.25
2023-02-11T04:03:47.631Z,9.80
2023-02-11T04:04:19.590Z,9.02
2023-02-11T04:04:51.435Z,8.95
2023-02-11T04:05:24.234Z,9.20
2023-02-11T04:05:56.085Z,10.02
2023-02-11T04:06:27.905Z,9.20
2023-02-11T04:06:59.723Z,9.52
2023-02-11T04:07:32.490Z,9.02
2023-02-11T04:08:04.842Z,10.02
2023-02-11T04:08:36.710Z,8.98
2023-02-11T04:09:09.714Z,9.90
2023-02-11T04:09:41.539Z,7.90
2023-02-11T04:10:13.506Z,10.95
2023-02-11T04:10:46.338Z,9.50
2023-02-11T04:11:18.503Z,9.25
2023-02-11T04:11:50.274Z,9.35
2023-02-11T04:12:23.113Z,8.90
2023-02-11T04:12:55.147Z,10.07
2023-02-11T04:13:26.967Z,9.15
2023-02-11T04:13:59.936Z,8.90
2023-02-11T04:14:31.759Z,8.50
2023-02-11T04:15:03.994Z,9.65
2023-02-11T04:15:36.782Z,9.10
2023-02-11T04:16:08.681Z,10.02
2023-02-11T04:16:40.605Z,9.20
2023-02-11T04:17:14.223Z,9.38
2023-02-11T04:17:46.201Z,9.15
2023-02-11T04:18:18.023Z,7.63
2023-02-11T04:18:51.213Z,8.95
2023-02-11T04:19:24.020Z,9.18
2023-02-11T04:19:55.887Z,9.50
2023-02-11T04:20:27.678Z,8.80
2023-02-11T04:21:00.439Z,7.72
2023-02-11T04:21:32.281Z,8.88
2023-02-11T04:22:05.901Z,8.75
2023-02-11T04:22:39.032Z,8.60
2023-02-11T04:23:10.876Z,8.13
2023-02-11T04:23:42.684Z,8.65
2023-02-11T04:24:15.428Z,9.20
2023-02-11T04:24:47.233Z,8.25
2023-02-11T04:25:19.423Z,8.88
2023-02-11T04:25:52.434Z,7.70
2023-02-11T04:26:24.448Z,9.60
2023-02-11T04:26:56.572Z,8.13
2023-02-11T04:27:29.399Z,8.80
2023-02-11T04:28:01.333Z,10.13
2023-02-11T04:28:33.287Z,8.38
2023-02-11T04:29:06.100Z,8.90
2023-02-11T04:29:38.100Z,8.52
2023-02-11T04:30:12.364Z,9.38
2023-02-11T04:30:45.204Z,9.27
2023-02-11T04:31:17.162Z,8.48
2023-02-11T04:31:49.403Z,7.93
2023-02-11T04:32:22.274Z,9.45
2023-02-11T04:32:54.358Z,9.10
2023-02-11T04:33:26.242Z,8.23
2023-02-11T04:34:00.371Z,8.30
2023-02-11T04:34:32.277Z,8.55
2023-02-11T04:35:04.477Z,8.90
2023-02-11T04:35:37.275Z,9.23
2023-02-11T04:36:09.194Z,9.40
2023-02-11T04:36:42.573Z,8.15
2023-02-11T04:37:14.521Z,10.18
2023-02-11T04:37:46.454Z,8.98
2023-02-11T04:38:19.296Z,7.97
2023-02-11T04:38:51.111Z,8.95
2023-02-11T04:39:22.928Z,8.43
2023-02-11T04:39:55.735Z,9.57
2023-02-11T04:40:27.647Z,8.60
2023-02-11T04:41:00.505Z,9.30
2023-02-11T04:41:33.378Z,8.60
2023-02-11T04:42:05.370Z,8.63
2023-02-11T04:42:37.229Z,8.55
2023-02-11T04:43:10.162Z,10.70
2023-02-11T04:43:41.971Z,9.50
2023-02-11T04:44:13.836Z,7.65
2023-02-11T04:44:46.664Z,9.15
2023-02-11T04:45:18.565Z,9.00
2023-02-11T04:45:50.656Z,8.18
2023-02-11T04:46:22.790Z,8.30
2023-02-11T04:46:55.619Z,10.48
2023-02-11T04:47:27.618Z,10.00
2023-02-11T04:47:59.675Z,9.60
2023-02-11T04:48:31.540Z,9.18
2023-02-11T04:49:05.779Z,10.30
2023-02-11T04:49:37.647Z,9.55
2023-02-11T04:50:09.746Z,9.20
2023-02-11T04:50:42.992Z,9.77
2023-02-11T04:51:14.919Z,11.02
2023-02-11T04:51:49.314Z,8.98
2023-02-11T04:52:21.486Z,9.02
2023-02-11T04:52:54.263Z,9.07
2023-02-11T04:53:26.160Z,9.70
2023-02-11T04:53:58.142Z,9.20
2023-02-11T04:54:30.985Z,8.73
2023-02-11T04:55:02.810Z,9.57
2023-02-11T04:55:34.648Z,8.88
2023-02-11T04:56:07.831Z,9.95
2023-02-11T04:56:39.976Z,8.82
2023-02-11T04:57:12.146Z,8.57
2023-02-11T04:57:43.986Z,9.60
2023-02-11T04:58:16.799Z,8.93
2023-02-11T04:58:48.606Z,8.90
2023-02-11T04:59:20.429Z,9.70
2023-02-11T04:59:53.209Z,8.95
2023-02-11T05:00:25.059Z,8.88
2023-02-11T05:01:04.647Z,9.10
2023-02-11T05:01:37.548Z,10.10
2023-02-11T05:02:09.397Z,9.63
2023-02-11T05:02:41.241Z,7.43
2023-02-11T05:03:16.773Z,7.95
2023-02-11T05:03:48.666Z,8.70
2023-02-11T05:04:21.973Z,11.00
2023-02-11T05:04:54.889Z,9.35
2023-02-11T05:05:26.717Z,10.45
2023-02-11T05:05:58.521Z,9.18
2023-02-11T05:06:31.416Z,10.70
2023-02-11T05:07:03.350Z,8.80
2023-02-11T05:07:35.289Z,9.48
2023-02-11T05:08:08.470Z,8.88
2023-02-11T05:08:40.499Z,8.80
2023-02-11T05:09:12.899Z,8.65
2023-02-11T05:09:45.650Z,9.57
2023-02-11T05:10:17.571Z,8.90
2023-02-11T05:10:49.442Z,9.32
2023-02-11T05:11:26.287Z,9.52
2023-02-11T05:11:58.180Z,9.60
2023-02-11T05:12:29.988Z,9.05
2023-02-11T05:13:02.955Z,9.27
2023-02-11T05:13:34.782Z,9.65
2023-02-11T05:14:07.202Z,9.27
2023-02-11T05:14:40.220Z,8.38
2023-02-11T05:15:12.023Z,8.68
2023-02-11T05:15:44.206Z,8.82
2023-02-11T05:16:17.733Z,9.55
2023-02-11T05:16:49.723Z,9.35
2023-02-11T05:17:21.569Z,8.55
2023-02-11T05:17:53.802Z,8.75
2023-02-11T05:18:26.552Z,8.90
2023-02-11T05:18:58.635Z,9.20
2023-02-11T05:19:32.018Z,9.45
2023-02-11T05:20:04.287Z,7.93
2023-02-11T05:20:39.340Z,8.18
2023-02-11T05:21:15.897Z,8.90
2023-02-11T05:22:01.460Z,8.82
2023-02-11T05:22:35.275Z,8.77
2023-02-11T05:23:07.244Z,7.88
2023-02-11T05:23:39.526Z,9.20
2023-02-11T05:24:12.447Z,9.30
2023-02-11T05:24:44.322Z,8.60
2023-02-11T05:25:16.226Z,8.73
2023-02-11T05:25:49.368Z,8.80
2023-02-11T05:26:21.367Z,9.00
2023-02-11T05:26:53.259Z,9.10
2023-02-11T05:27:26.053Z,8.73
2023-02-11T05:27:57.905Z,9.45
2023-02-11T05:28:30.061Z,8.40
2023-02-11T05:29:03.741Z,10.02
2023-02-11T05:29:35.692Z,9.50
2023-02-11T05:30:08.799Z,8.15
2023-02-11T05:30:41.563Z,8.82
2023-02-11T05:31:14.587Z,8.38
2023-02-11T05:31:46.636Z,8.30
2023-02-11T05:32:19.473Z,8.63
2023-02-11T05:32:51.425Z,8.70
2023-02-11T05:33:23.767Z,9.40
2023-02-11T05:33:56.598Z,8.20
2023-02-11T05:34:28.589Z,9.23
2023-02-11T05:35:01.790Z,7.60
2023-02-11T05:35:34.610Z,8.90
2023-02-11T05:36:09.564Z,9.00
2023-02-11T05:36:41.523Z,8.73
2023-02-11T05:37:14.350Z,8.40
2023-02-11T05:37:46.260Z,9.40
2023-02-11T05:38:18.198Z,7.90
2023-02-11T05:38:51.542Z,8.35
2023-02-11T05:39:23.332Z,8.52
2023-02-11T05:39:55.127Z,8.50
2023-02-11T05:40:27.908Z,8.02
2023-02-11T05:40:59.728Z,8.75
2023-02-11T05:41:31.531Z,8.07
2023-02-11T05:42:04.707Z,7.95
2023-02-11T05:42:36.520Z,8.15
2023-02-11T05:43:08.386Z,9.25
2023-02-11T05:43:41.204Z,8.27
2023-02-11T05:44:13.068Z,7.65
2023-02-11T05:44:44.941Z,8.65
2023-02-11T05:45:17.826Z,7.97
2023-02-11T05:45:49.951Z,7.72
2023-02-11T05:46:22.260Z,7.68
2023-02-11T05:46:55.144Z,7.53
2023-02-11T05:47:26.984Z,7.50
2023-02-11T05:47:58.846Z,8.20
2023-02-11T05:48:31.072Z,8.38
2023-02-11T05:49:04.007Z,8.60
2023-02-11T05:49:36.021Z,8.52
2023-02-11T05:50:09.615Z,7.32
2023-02-11T05:50:42.426Z,8.73
2023-02-11T05:51:14.256Z,8.15
2023-02-11T05:51:46.097Z,8.05
2023-02-11T05:52:19.042Z,8.35
2023-02-11T05:52:50.940Z,7.32
2023-02-11T05:53:22.960Z,7.50
2023-02-11T05:53:55.754Z,7.72
2023-02-11T05:54:27.619Z,8.18
2023-02-11T05:54:59.429Z,8.57
2023-02-11T05:55:32.281Z,8.95
2023-02-11T05:56:04.618Z,8.30
2023-02-11T05:56:36.496Z,8.70
2023-02-11T05:57:09.396Z,7.90
2023-02-11T05:57:41.467Z,7.47
2023-02-11T05:58:13.605Z,7.80
2023-02-11T05:58:46.388Z,7.75
2023-02-11T05:59:18.205Z,10.52
2023-02-11T05:59:49.992Z,7.88
2023-02-11T06:00:23.078Z,8.23
2023-02-11T06:00:54.994Z,8.70
2023-02-11T06:01:27.210Z,11.63
2023-02-11T06:01:59.982Z,9.25
2023-02-11T06:02:31.860Z,8.50
2023-02-11T06:03:04.357Z,7.93
2023-02-11T06:03:37.242Z,8.90
2023-02-11T06:04:09.180Z,9.20
2023-02-11T06:04:41.538Z,9.88
2023-02-11T06:05:15.751Z,9.88
2023-02-11T06:05:47.629Z,8.65
2023-02-11T06:06:19.435Z,8.63
2023-02-11T06:06:52.297Z,11.13
2023-02-11T06:07:24.128Z,10.07
2023-02-11T06:07:56.070Z,9.63
2023-02-11T06:08:28.835Z,9.48
2023-02-11T06:09:00.677Z,10.88
2023-02-11T06:09:32.540Z,9.02
2023-02-11T06:10:05.988Z,8.32
2023-02-11T06:10:38.031Z,13.60
2023-02-11T06:11:09.999Z,9.65
2023-02-11T06:11:42.779Z,11.25
2023-02-11T06:12:14.624Z,9.95
2023-02-11T06:12:46.446Z,9.57
2023-02-11T06:13:19.662Z,7.95
2023-02-11T06:13:51.614Z,9.60
2023-02-11T06:14:23.791Z,8.95
2023-02-11T06:14:56.603Z,8.90
2023-02-11T06:15:28.841Z,8.20
2023-02-11T06:16:02.356Z,9.07
2023-02-11T06:16:35.208Z,8.43
2023-02-11T06:17:07.098Z,8.77
2023-02-11T06:17:38.914Z,11.18
2023-02-11T06:18:11.735Z,9.10
2023-02-11T06:18:43.579Z,8.15
2023-02-11T06:19:15.419Z,10.07
2023-02-11T06:19:47.347Z,11.57
2023-02-11T06:20:21.884Z,12.10
2023-02-11T06:20:53.817Z,15.35
2023-02-11T06:21:33.598Z,17.05
2023-02-11T06:22:12.792Z,11.40
2023-02-11T06:22:44.665Z,13.93
2023-02-11T06:23:16.554Z,10.23
2023-02-11T06:23:49.428Z,8.80
2023-02-11T06:24:44.344Z,9.43
2023-02-11T06:25:14.878Z,9.38
2023-02-11T06:25:46.854Z,9.70
2023-02-11T06:26:20.362Z,8.80
2023-02-11T06:26:53.272Z,8.70
2023-02-11T06:27:25.207Z,9.23
2023-02-11T06:27:57.377Z,9.75
2023-02-11T06:28:31.197Z,14.80
2023-02-11T06:29:03.094Z,11.85
2023-02-11T06:29:34.906Z,9.75
2023-02-11T06:30:09.882Z,14.18
2023-02-11T06:30:41.911Z,9.82
2023-02-11T06:31:14.763Z,9.88
2023-02-11T06:31:47.841Z,8.65
2023-02-11T06:32:39.519Z,7.57
2023-02-11T06:33:13.157Z,8.23
2023-02-11T06:33:45.095Z,7.70
2023-02-11T06:34:16.928Z,9.90
2023-02-11T06:34:49.931Z,8.65
2023-02-11T06:35:23.107Z,8.32
2023-02-11T06:35:54.962Z,8.63
2023-02-11T06:36:26.843Z,9.10
2023-02-11T06:36:59.662Z,8.43
2023-02-11T06:37:31.542Z,8.77
2023-02-11T06:38:03.682Z,8.93
2023-02-11T06:38:36.494Z,8.52
2023-02-11T06:39:08.290Z,7.63
2023-02-11T06:39:40.144Z,7.97
2023-02-11T06:40:13.646Z,8.07
2023-02-11T06:40:47.913Z,8.45
2023-02-11T06:41:20.279Z,8.85
2023-02-11T06:41:53.041Z,7.63
2023-02-11T06:42:24.911Z,7.60
2023-02-11T06:42:56.804Z,7.63
2023-02-11T06:43:29.605Z,8.30
2023-02-11T06:44:01.494Z,7.97
2023-02-11T06:44:33.386Z,7.35
2023-02-11T06:45:08.896Z,8.15
2023-02-11T06:45:40.795Z,8.43
2023-02-11T06:46:12.749Z,7.53
2023-02-11T06:46:45.667Z,9.25
2023-02-11T06:47:17.518Z,7.63
2023-02-11T06:47:52.281Z,7.30
2023-02-11T06:48:25.290Z,8.05
2023-02-11T06:48:57.214Z,8.07
2023-02-11T06:49:29.039Z,7.15
2023-02-11T06:50:01.811Z,8.25
2023-02-11T06:50:35.084Z,7.25
2023-02-11T06:51:10.493Z,8.60
2023-02-11T06:51:42.315Z,7.00
2023-02-11T06:52:14.147Z,8.23
2023-02-11T06:52:46.978Z,8.65
2023-02-11T06:53:18.914Z,9.40
2023-02-11T06:53:51.117Z,8.85
2023-02-11T06:54:24.001Z,8.55
2023-02-11T06:54:55.869Z,9.38
2023-02-11T06:55:28.088Z,8.10
2023-02-11T06:56:04.338Z,10.23
2023-02-11T06:56:36.835Z,8.52
2023-02-11T06:57:08.697Z,8.70
2023-02-11T06:57:41.583Z,8.52
2023-02-11T06:58:13.563Z,8.68
2023-02-11T06:58:46.003Z,8.50
2023-02-11T06:59:20.873Z,8.32
2023-02-11T06:59:52.737Z,8.32
2023-02-11T07:00:24.667Z,9.02
2023-02-11T07:00:57.465Z,8.57
2023-02-11T07:01:29.432Z,8.85
2023-02-11T07:02:01.354Z,9.10
2023-02-11T07:02:33.268Z,8.15
2023-02-11T07:03:06.251Z,8.00
2023-02-11T07:03:40.256Z,8.82
2023-02-11T07:04:14.612Z,8.18
2023-02-11T07:04:46.470Z,7.63
2023-02-11T07:05:18.443Z,8.30
2023-02-11T07:05:52.880Z,7.95
2023-02-11T07:06:27.737Z,7.55
2023-02-11T07:07:00.609Z,7.20
2023-02-11T07:07:34.208Z,7.43
2023-02-11T07:08:06.861Z,8.45
2023-02-11T07:08:40.436Z,7.93
2023-02-11T07:09:12.268Z,8.30
2023-02-11T07:09:44.311Z,7.13
2023-02-11T07:10:17.195Z,7.80
2023-02-11T07:10:49.037Z,7.68
2023-02-11T07:11:24.253Z,7.72
2023-02-11T07:11:57.034Z,7.00
2023-02-11T07:12:28.835Z,6.20
2023-02-11T07:13:00.654Z,6.43
2023-02-11T07:13:33.562Z,7.45
2023-02-11T07:14:08.316Z,7.18
2023-02-11T07:14:40.568Z,7.15
2023-02-11T07:15:13.501Z,7.43
2023-02-11T07:15:45.415Z,7.75
2023-02-11T07:16:19.241Z,6.93
2023-02-11T07:16:52.086Z,6.57
2023-02-11T07:17:23.922Z,7.93
2023-02-11T07:17:55.723Z,6.82
2023-02-11T07:18:28.512Z,7.13
2023-02-11T07:19:00.541Z,7.32
2023-02-11T07:19:32.352Z,6.82
2023-02-11T07:20:05.809Z,6.20
2023-02-11T07:20:38.573Z,8.13
2023-02-11T07:21:13.547Z,7.05
2023-02-11T07:21:46.321Z,7.10
2023-02-11T07:22:18.189Z,7.78
2023-02-11T07:22:50.005Z,6.93
2023-02-11T07:23:22.901Z,6.32
2023-02-11T07:23:54.841Z,6.35
2023-02-11T07:24:27.707Z,6.60
2023-02-11T07:24:59.513Z,7.10
2023-02-11T07:25:31.420Z,6.75
2023-02-11T07:26:05.399Z,7.00
2023-02-11T07:26:37.346Z,7.45
2023-02-11T07:27:09.203Z,6.57
2023-02-11T07:27:42.064Z,7.15
2023-02-11T07:28:13.899Z,7.20
2023-02-11T07:28:46.316Z,7.00
2023-02-11T07:29:19.067Z,7.35
2023-02-11T07:29:50.916Z,7.20
2023-02-11T07:30:22.695Z,8.50